createdAt,value
2022-08-20T00:00:34.350Z,26.33
2022-08-20T00:03:06.042Z,27.45
2022-08-20T00:05:37.322Z,27.40
2022-08-20T00:08:05.562Z,27.58
2022-08-20T00:10:35.627Z,30.02
2022-08-20T00:13:04.385Z,26.15
2022-08-20T00:15:34.843Z,27.70
2022-08-20T00:18:03.357Z,32.45
2022-08-20T00:20:35.591Z,23.08
2022-08-20T00:23:06.257Z,27.42
2022-08-20T00:25:37.363Z,25.10
2022-08-20T00:28:06.883Z,33.33
2022-08-20T00:30:35.415Z,31.75
2022-08-20T00:33:10.501Z,31.02
2022-08-20T00:35:41.155Z,30.67
2022-08-20T00:38:08.484Z,34.90
2022-08-20T00:40:40.052Z,36.85
2022-08-20T00:43:24.060Z,37.78
2022-08-20T00:45:55.397Z,37.63
2022-08-20T00:48:25.638Z,46.50
2022-08-20T00:50:56.465Z,40.70
2022-08-20T00:53:26.660Z,42.15
2022-08-20T00:55:53.428Z,39.65
2022-08-20T00:58:20.617Z,38.20
2022-08-20T01:00:49.606Z,37.00
2022-08-20T01:03:19.109Z,47.00
2022-08-20T01:05:49.608Z,39.80
2022-08-20T01:08:22.316Z,38.05
2022-08-20T01:10:53.656Z,43.38
2022-08-20T01:13:24.098Z,35.08
2022-08-20T01:15:54.807Z,42.85
2022-08-20T01:18:25.943Z,40.60
2022-08-20T01:20:58.637Z,37.22
2022-08-20T01:23:48.649Z,37.00
2022-08-20T01:26:24.830Z,40.88
2022-08-20T01:28:58.853Z,44.47
2022-08-20T01:31:29.789Z,34.92
2022-08-20T01:33:59.015Z,38.25
2022-08-20T01:36:48.290Z,41.10
2022-08-20T01:39:19.734Z,35.30
2022-08-20T01:42:00.319Z,37.95
2022-08-20T01:44:27.828Z,40.20
2022-08-20T01:47:07.611Z,42.83
2022-08-20T01:49:35.683Z,42.05
2022-08-20T01:52:08.490Z,43.65
2022-08-20T01:54:35.806Z,51.75
2022-08-20T01:57:06.715Z,47.38
2022-08-20T01:59:33.676Z,39.13
2022-08-20T02:02:02.552Z,41.08
2022-08-20T02:04:29.426Z,45.47
2022-08-20T02:06:58.729Z,40.03
2022-08-20T02:09:34.464Z,41.90
2022-08-20T02:12:03.177Z,40.42
2022-08-20T02:14:30.881Z,43.63
2022-08-20T02:17:01.080Z,47.20
2022-08-20T02:19:45.540Z,44.60
2022-08-20T02:22:25.416Z,49.88
2022-08-20T02:24:52.672Z,48.30
2022-08-20T02:27:23.682Z,52.70
2022-08-20T02:29:51.149Z,52.80
2022-08-20T02:32:24.872Z,55.30
2022-08-20T02:35:03.628Z,56.97
2022-08-20T02:37:31.737Z,59.60
2022-08-20T02:39:58.825Z,57.58
2022-08-20T02:42:26.750Z,59.75
2022-08-20T02:44:54.354Z,68.75
2022-08-20T02:47:21.429Z,62.58
2022-08-20T02:49:48.421Z,61.38
2022-08-20T02:52:15.419Z,57.42
2022-08-20T02:54:42.410Z,58.33
2022-08-20T02:57:14.656Z,51.75
2022-08-20T02:59:43.014Z,53.65
2022-08-20T03:02:10.114Z,60.92
2022-08-20T03:04:37.470Z,55.40
2022-08-20T03:07:05.442Z,56.58
2022-08-20T03:09:33.115Z,64.15
2022-08-20T03:11:59.770Z,72.07
2022-08-20T03:14:27.103Z,73.55
2022-08-20T03:16:53.987Z,69.18
2022-08-20T03:19:22.916Z,77.03
2022-08-20T03:21:50.049Z,61.30
2022-08-20T03:24:17.044Z,68.85
2022-08-20T03:26:44.160Z,68.97
2022-08-20T03:29:12.340Z,70.32
2022-08-20T03:31:39.072Z,66.78
2022-08-20T03:34:06.064Z,64.22
2022-08-20T03:36:33.164Z,61.45
2022-08-20T03:39:06.928Z,63.75
2022-08-20T03:41:33.880Z,67.53
2022-08-20T03:44:00.832Z,61.83
2022-08-20T03:46:27.806Z,68.03
2022-08-20T03:49:00.310Z,74.95
2022-08-20T03:51:30.413Z,67.15
2022-08-20T03:53:57.957Z,74.53
2022-08-20T03:56:25.816Z,73.63
2022-08-20T03:58:53.057Z,67.05
2022-08-20T04:01:44.459Z,67.63
2022-08-20T04:04:12.436Z,62.75
2022-08-20T04:06:41.221Z,64.30
2022-08-20T04:09:11.706Z,65.15
2022-08-20T04:11:40.720Z,62.22
2022-08-20T04:14:09.321Z,66.45
2022-08-20T04:16:41.041Z,60.50
2022-08-20T04:19:08.425Z,59.35
2022-08-20T04:21:36.597Z,59.05
2022-08-20T04:24:05.597Z,64.47
2022-08-20T04:26:35.187Z,65.38
2022-08-20T04:29:02.179Z,62.00
2022-08-20T04:31:35.058Z,62.90
2022-08-20T04:36:30.798Z,66.03
2022-08-20T04:38:58.104Z,60.95
2022-08-20T04:41:24.847Z,60.75
2022-08-20T04:43:54.181Z,60.25
2022-08-20T04:46:25.396Z,58.80
2022-08-20T04:48:52.947Z,63.05
2022-08-20T04:51:22.927Z,55.45
2022-08-20T04:53:53.829Z,51.47
2022-08-20T04:56:23.770Z,58.47
2022-08-20T04:58:52.693Z,53.17
2022-08-20T05:01:19.746Z,57.00
2022-08-20T05:03:50.038Z,57.42
2022-08-20T05:06:18.052Z,55.15
2022-08-20T05:08:45.268Z,64.18
2022-08-20T05:11:33.914Z,69.93
2022-08-20T05:14:01.769Z,78.70
2022-08-20T05:16:28.619Z,75.15
2022-08-20T05:18:55.585Z,78.90
2022-08-20T05:21:22.854Z,87.88
2022-08-20T05:23:49.917Z,92.50
2022-08-20T05:26:19.896Z,89.43
2022-08-20T05:28:57.810Z,98.75
2022-08-20T05:31:31.436Z,92.85
2022-08-20T05:34:11.106Z,95.97
2022-08-20T05:36:48.177Z,103.95
2022-08-20T05:39:18.471Z,97.20
2022-08-20T05:41:45.419Z,98.90
2022-08-20T05:44:15.764Z,106.57
2022-08-20T05:46:45.289Z,109.82
2022-08-20T05:49:16.435Z,102.10
2022-08-20T05:51:43.927Z,117.45
2022-08-20T05:54:11.593Z,116.80
2022-08-20T05:56:39.373Z,117.63
2022-08-20T05:59:08.482Z,112.30
2022-08-20T06:01:37.942Z,121.20
2022-08-20T06:04:24.622Z,116.47
2022-08-20T06:06:53.543Z,129.52
2022-08-20T06:09:30.953Z,120.65
2022-08-20T06:12:01.963Z,133.55
2022-08-20T06:14:29.482Z,130.77
2022-08-20T06:17:06.490Z,115.10
2022-08-20T06:19:35.867Z,122.63
2022-08-20T06:22:08.591Z,123.57
2022-08-20T06:24:46.363Z,132.52
2022-08-20T06:27:16.001Z,111.93
2022-08-20T06:29:43.655Z,96.53
2022-08-20T06:32:10.748Z,91.40
2022-08-20T06:34:37.748Z,82.13
2022-08-20T06:37:25.935Z,67.85
2022-08-20T06:40:03.663Z,70.90
2022-08-20T06:42:30.529Z,64.43
2022-08-20T06:44:59.793Z,62.30
2022-08-20T06:47:26.468Z,55.08
2022-08-20T06:49:53.949Z,52.38
2022-08-20T06:52:20.668Z,54.67
2022-08-20T06:55:10.548Z,46.20
2022-08-20T06:57:38.458Z,46.70
2022-08-20T07:00:12.101Z,52.67
2022-08-20T07:02:38.767Z,49.83
2022-08-20T07:05:06.717Z,53.28
2022-08-20T07:07:37.165Z,46.63
2022-08-20T07:10:10.969Z,59.88
2022-08-20T07:12:37.833Z,60.67
2022-08-20T07:15:08.761Z,64.13
2022-08-20T07:17:35.782Z,62.75
2022-08-20T07:20:13.385Z,62.17
2022-08-20T07:22:40.855Z,69.68
2022-08-20T07:25:12.906Z,73.43
2022-08-20T07:27:40.074Z,67.25
2022-08-20T07:30:31.364Z,69.32
2022-08-20T07:32:58.506Z,69.72
2022-08-20T07:35:27.675Z,66.88
2022-08-20T07:37:54.835Z,70.70
2022-08-20T07:40:27.713Z,70.18
2022-08-20T07:42:56.052Z,66.20
2022-08-20T07:45:23.698Z,69.20
2022-08-20T07:47:53.460Z,60.08
2022-08-20T07:50:25.961Z,73.50
2022-08-20T07:52:53.295Z,66.28
2022-08-20T07:55:21.720Z,68.18
2022-08-20T07:57:50.680Z,64.70
2022-08-20T08:00:20.560Z,64.03
2022-08-20T08:02:47.621Z,66.45
2022-08-20T08:05:16.200Z,65.72
2022-08-20T08:07:43.366Z,56.17
2022-08-20T08:10:14.256Z,56.38
2022-08-20T08:12:47.590Z,68.65
2022-08-20T08:15:18.017Z,61.10
2022-08-20T08:17:47.273Z,70.15
2022-08-20T08:20:15.605Z,63.25
2022-08-20T08:22:44.099Z,58.45
2022-08-20T08:25:12.845Z,60.25
2022-08-20T08:27:41.017Z,62.60
2022-08-20T08:30:09.563Z,62.42
2022-08-20T08:32:38.189Z,67.50
2022-08-20T08:35:08.787Z,71.22
2022-08-20T08:37:38.021Z,68.20
2022-08-20T08:40:05.917Z,66.65
2022-08-20T08:42:46.702Z,75.18
2022-08-20T08:45:16.859Z,68.00
2022-08-20T08:47:45.166Z,66.85
2022-08-20T08:50:38.555Z,74.95
2022-08-20T08:53:17.331Z,69.10
2022-08-20T08:55:45.077Z,67.07
2022-08-20T08:58:17.362Z,65.28
2022-08-20T09:00:56.229Z,56.00
2022-08-20T09:03:29.611Z,75.82
2022-08-20T09:06:02.165Z,64.93
2022-08-20T09:08:39.931Z,67.82
2022-08-20T09:11:08.545Z,73.22
2022-08-20T09:13:35.489Z,68.80
2022-08-20T09:16:02.715Z,66.65
2022-08-20T09:18:29.783Z,68.82
2022-08-20T09:20:56.821Z,72.63
2022-08-20T09:23:23.855Z,80.50
2022-08-20T09:25:50.885Z,81.13
2022-08-20T09:28:17.682Z,76.75
2022-08-20T09:30:45.073Z,78.68
2022-08-20T09:33:13.175Z,68.53
2022-08-20T09:35:41.088Z,72.18
2022-08-20T09:38:08.177Z,70.78
2022-08-20T09:40:35.581Z,78.53
2022-08-20T09:43:06.125Z,68.18
2022-08-20T09:45:33.712Z,66.53
2022-08-20T09:48:00.473Z,55.95
2022-08-20T09:50:31.663Z,64.65
2022-08-20T09:53:00.899Z,67.28
2022-08-20T09:55:39.042Z,66.70
2022-08-20T09:58:38.010Z,55.22
2022-08-20T10:01:15.150Z,71.30
2022-08-20T10:03:43.140Z,63.60
2022-08-20T10:06:11.527Z,63.30
2022-08-20T10:08:38.626Z,61.72
2022-08-20T10:11:06.059Z,53.60
2022-08-20T10:13:32.818Z,53.22
2022-08-20T10:15:59.798Z,52.75
2022-08-20T10:18:26.574Z,55.78
2022-08-20T10:20:53.910Z,50.97
2022-08-20T10:23:20.560Z,50.95
2022-08-20T10:25:47.890Z,57.97
2022-08-20T10:28:14.615Z,58.70
2022-08-20T10:30:41.658Z,51.85
2022-08-20T10:33:08.286Z,59.45
2022-08-20T10:35:35.766Z,51.65
2022-08-20T10:38:02.454Z,54.00
2022-08-20T10:40:29.894Z,53.70
2022-08-20T10:42:56.714Z,51.45
2022-08-20T10:45:25.603Z,54.38
2022-08-20T10:47:52.726Z,45.88
2022-08-20T10:50:20.016Z,42.55
2022-08-20T10:52:47.308Z,45.90
2022-08-20T10:55:14.711Z,48.80
2022-08-20T10:57:43.422Z,52.58
2022-08-20T11:00:14.776Z,40.67
2022-08-20T11:02:41.923Z,41.92
2022-08-20T11:05:09.148Z,50.30
2022-08-20T11:07:59.842Z,39.78
2022-08-20T11:10:27.870Z,48.83
2022-08-20T11:12:55.380Z,38.95
2022-08-20T11:15:22.473Z,41.38
2022-08-20T11:17:49.600Z,40.15
2022-08-20T11:20:19.214Z,37.53
2022-08-20T11:22:46.765Z,39.40
2022-08-20T11:25:13.818Z,39.55
2022-08-20T11:27:45.217Z,34.20
2022-08-20T11:30:18.629Z,34.28
2022-08-20T11:32:46.085Z,33.42
2022-08-20T11:35:41.250Z,35.22
2022-08-20T11:38:02.610Z,41.22
2022-08-20T11:40:31.292Z,32.33
2022-08-20T11:43:14.329Z,43.78
2022-08-20T11:45:42.867Z,38.25
2022-08-20T11:48:10.169Z,30.95
2022-08-20T11:50:36.867Z,32.25
2022-08-20T11:53:04.111Z,36.20
2022-08-20T11:55:32.552Z,28.02
2022-08-20T11:58:01.004Z,34.83
2022-08-20T12:00:32.809Z,32.45
2022-08-20T12:03:02.503Z,39.00
2022-08-20T12:05:30.023Z,27.88
2022-08-20T12:08:00.175Z,39.78
2022-08-20T12:10:28.066Z,33.70
2022-08-20T12:12:56.645Z,33.10
2022-08-20T12:15:24.006Z,31.02
2022-08-20T12:17:51.311Z,34.08
2022-08-20T12:20:18.050Z,29.58
2022-08-20T12:22:45.404Z,27.60
2022-08-20T12:25:13.246Z,27.48
2022-08-20T12:27:41.334Z,34.05
2022-08-20T12:30:11.886Z,25.55
2022-08-20T12:32:39.808Z,28.58
2022-08-20T12:35:07.717Z,32.13
2022-08-20T12:37:35.256Z,25.80
2022-08-20T12:40:05.713Z,26.38
2022-08-20T12:42:33.136Z,27.85
2022-08-20T12:45:00.483Z,29.13
2022-08-20T12:47:31.165Z,26.27
2022-08-20T12:50:05.018Z,18.80
2022-08-20T12:52:33.641Z,24.20
2022-08-20T12:55:01.032Z,23.60
2022-08-20T12:57:44.225Z,20.27
2022-08-20T13:02:41.513Z,26.40
2022-08-20T13:05:10.050Z,20.88
2022-08-20T13:07:37.774Z,25.27
2022-08-20T13:10:06.469Z,19.80
2022-08-20T13:12:34.005Z,18.73
2022-08-20T13:15:00.637Z,25.20
2022-08-20T13:17:38.810Z,28.65
2022-08-20T13:20:15.482Z,26.65
2022-08-20T13:22:43.414Z,20.10
2022-08-20T13:25:11.791Z,24.08
2022-08-20T13:27:42.168Z,26.10
2022-08-20T13:30:11.783Z,25.45
2022-08-20T13:32:39.099Z,30.00
2022-08-20T13:35:06.143Z,26.55
2022-08-20T13:37:34.111Z,24.25
2022-08-20T13:40:01.124Z,19.58
2022-08-20T13:42:28.588Z,22.15
2022-08-20T13:44:55.368Z,27.83
2022-08-20T13:47:29.212Z,23.33
2022-08-20T13:49:59.271Z,23.35
2022-08-20T13:52:27.240Z,23.33
2022-08-20T13:54:54.363Z,17.45
2022-08-20T13:57:25.008Z,23.15
2022-08-20T13:59:54.732Z,19.83
2022-08-20T14:02:22.678Z,23.48
2022-08-20T14:04:50.437Z,24.63
2022-08-20T14:07:31.991Z,21.00
2022-08-20T14:10:06.454Z,19.67
2022-08-20T14:12:33.950Z,19.80
2022-08-20T14:15:00.660Z,26.40
2022-08-20T14:17:36.577Z,24.15
2022-08-20T14:20:17.851Z,21.95
2022-08-20T14:22:45.413Z,19.52
2022-08-20T14:25:14.762Z,22.35
2022-08-20T14:27:42.007Z,19.58
2022-08-20T14:30:16.635Z,18.48
2022-08-20T14:32:43.810Z,16.60
2022-08-20T14:35:11.589Z,15.48
2022-08-20T14:37:41.665Z,18.17
2022-08-20T14:40:15.422Z,15.23
2022-08-20T14:42:43.440Z,17.90
2022-08-20T14:45:15.301Z,12.85
2022-08-20T14:47:51.787Z,13.00
2022-08-20T14:50:27.582Z,13.65
2022-08-20T14:52:55.331Z,16.70
2022-08-20T14:55:25.023Z,13.30
2022-08-20T14:57:52.062Z,19.13
2022-08-20T15:00:23.121Z,18.27
2022-08-20T15:02:50.450Z,17.25
2022-08-20T15:05:17.874Z,17.92
2022-08-20T15:07:48.523Z,14.57
2022-08-20T15:10:25.952Z,22.20
2022-08-20T15:12:52.923Z,19.08
2022-08-20T15:15:21.259Z,20.95
2022-08-20T15:17:50.388Z,22.35
2022-08-20T15:20:23.487Z,30.25
2022-08-20T15:22:50.638Z,22.47
2022-08-20T15:25:20.800Z,19.15
2022-08-20T15:27:48.425Z,18.00
2022-08-20T15:30:18.740Z,16.83
2022-08-20T15:32:46.058Z,15.68
2022-08-20T15:35:13.495Z,19.83
2022-08-20T15:37:43.193Z,24.17
2022-08-20T15:40:12.649Z,24.58
2022-08-20T15:45:21.842Z,21.00
2022-08-20T15:48:08.209Z,19.95
2022-08-20T15:51:03.283Z,21.50
2022-08-20T15:53:51.272Z,27.13
2022-08-20T15:56:55.702Z,18.30
2022-08-20T15:59:45.092Z,16.65
2022-08-20T16:02:12.017Z,17.80
2022-08-20T16:04:57.494Z,19.92
2022-08-20T16:07:36.369Z,19.95
2022-08-20T16:10:06.107Z,16.65
2022-08-20T16:12:37.978Z,30.88
2022-08-20T16:15:18.640Z,18.40
2022-08-20T16:18:07.530Z,17.63
2022-08-20T16:20:51.252Z,17.38
2022-08-20T16:23:23.551Z,18.45
2022-08-20T16:26:13.810Z,18.05
2022-08-20T16:28:46.659Z,19.17
2022-08-20T16:31:18.556Z,22.85
2022-08-20T16:34:28.767Z,22.67
2022-08-20T16:37:04.628Z,16.55
2022-08-20T16:39:45.945Z,15.38
2022-08-20T16:42:20.832Z,20.48
2022-08-20T16:44:50.316Z,15.30
2022-08-20T16:47:21.087Z,22.38
2022-08-20T16:50:00.612Z,18.48
2022-08-20T16:52:28.367Z,16.20
2022-08-20T16:54:55.248Z,17.70
2022-08-20T16:57:22.735Z,17.92
2022-08-20T17:00:13.156Z,16.30
2022-08-20T17:02:59.341Z,16.48
2022-08-20T17:05:42.940Z,15.18
2022-08-20T17:08:23.409Z,14.02
2022-08-20T17:11:13.004Z,14.93
2022-08-20T17:13:43.020Z,23.90
2022-08-20T17:16:12.992Z,17.92
2022-08-20T17:18:46.736Z,22.17
2022-08-20T17:21:22.980Z,17.83
2022-08-20T17:23:57.708Z,16.70
2022-08-20T17:26:30.417Z,14.45
2022-08-20T17:31:38.616Z,33.95
2022-08-20T17:34:14.397Z,32.42
2022-08-20T17:37:02.668Z,47.95
2022-08-20T17:39:31.566Z,48.97
2022-08-20T17:42:09.510Z,42.28
2022-08-20T17:44:40.869Z,25.30
2022-08-20T17:47:24.121Z,25.35
2022-08-20T17:50:02.775Z,19.20
2022-08-20T17:52:51.981Z,15.38
2022-08-20T17:55:20.128Z,22.60
2022-08-20T17:57:51.919Z,16.30
2022-08-20T18:00:24.056Z,16.20
2022-08-20T18:02:58.643Z,18.85
2022-08-20T18:05:29.970Z,15.82
2022-08-20T18:08:25.058Z,20.23
2022-08-20T18:11:25.819Z,13.68
2022-08-20T18:14:15.571Z,15.15
2022-08-20T18:17:01.183Z,17.25
2022-08-20T18:19:49.400Z,18.40
2022-08-20T18:22:20.782Z,11.23
2022-08-20T18:24:59.018Z,20.70
2022-08-20T18:27:31.735Z,15.68
2022-08-20T18:32:37.720Z,12.73
2022-08-20T18:35:22.239Z,13.98
2022-08-20T18:37:49.127Z,15.68
2022-08-20T18:40:33.760Z,21.95
2022-08-20T18:43:15.213Z,14.52
2022-08-20T18:45:42.736Z,18.60
2022-08-20T18:48:23.936Z,19.65
2022-08-20T18:50:56.294Z,13.70
2022-08-20T18:53:33.905Z,13.65
2022-08-20T18:56:11.544Z,16.10
2022-08-20T18:58:59.422Z,15.70
2022-08-20T19:01:26.617Z,15.27
2022-08-20T19:03:56.342Z,16.08
2022-08-20T19:06:39.097Z,17.85
2022-08-20T19:09:29.799Z,18.83
2022-08-20T19:12:33.901Z,13.25
2022-08-20T19:15:12.381Z,12.60
2022-08-20T19:17:42.169Z,17.10
2022-08-20T19:20:15.793Z,16.58
2022-08-20T19:22:45.077Z,15.10
2022-08-20T19:25:38.537Z,15.07
2022-08-20T19:28:23.166Z,13.45
2022-08-20T19:30:51.272Z,15.02
2022-08-20T19:33:29.962Z,16.63
2022-08-20T19:36:11.393Z,16.13
2022-08-20T19:38:46.758Z,16.38
2022-08-20T19:41:29.245Z,17.25
2022-08-20T19:44:00.061Z,15.55
2022-08-20T19:46:39.870Z,11.32
2022-08-20T19:49:29.690Z,15.63
2022-08-20T19:52:09.345Z,15.52
2022-08-20T19:54:46.626Z,14.07
2022-08-20T19:57:14.170Z,14.70
2022-08-20T19:59:59.500Z,26.00
2022-08-20T20:02:29.381Z,24.55
2022-08-20T20:04:58.126Z,12.93
2022-08-20T20:07:41.145Z,16.48
2022-08-20T20:10:19.483Z,19.48
2022-08-20T20:12:48.044Z,17.23
2022-08-20T20:15:15.758Z,20.35
2022-08-20T20:17:44.144Z,15.27
2022-08-20T20:20:28.489Z,16.40
2022-08-20T20:23:04.506Z,14.18
2022-08-20T20:25:33.863Z,14.20
2022-08-20T20:28:21.971Z,19.08
2022-08-20T20:30:49.534Z,16.83
2022-08-20T20:33:27.597Z,17.70
2022-08-20T20:36:13.476Z,15.18
2022-08-20T20:39:03.141Z,18.77
2022-08-20T20:41:30.597Z,18.02
2022-08-20T20:44:20.465Z,17.35
2022-08-20T20:46:49.605Z,18.17
2022-08-20T20:49:36.886Z,19.33
2022-08-20T20:52:15.022Z,15.40
2022-08-20T20:54:44.939Z,16.90
2022-08-20T20:57:18.002Z,14.38
2022-08-20T20:59:48.742Z,15.10
2022-08-20T21:02:16.961Z,13.60
2022-08-20T21:04:44.607Z,13.70
2022-08-20T21:07:14.567Z,14.75
2022-08-20T21:09:42.355Z,24.08
2022-08-20T21:12:11.427Z,22.33
2022-08-20T21:14:38.543Z,23.42
2022-08-20T21:17:09.051Z,20.88
2022-08-20T21:19:44.898Z,24.55
2022-08-20T21:22:12.366Z,18.67
2022-08-20T21:24:39.032Z,17.40
2022-08-20T21:27:06.991Z,15.82
2022-08-20T21:29:34.196Z,14.73
2022-08-20T21:32:01.281Z,18.17
2022-08-20T21:34:28.244Z,12.40
2022-08-20T21:36:55.776Z,13.38
2022-08-20T21:39:25.001Z,17.70
2022-08-20T21:42:02.189Z,20.83
2022-08-20T21:44:32.184Z,16.02
2022-08-20T21:47:00.675Z,15.95
2022-08-20T21:49:29.561Z,18.98
2022-08-20T21:51:57.112Z,11.55
2022-08-20T21:54:25.113Z,11.60
2022-08-20T21:56:56.890Z,16.00
2022-08-20T21:59:24.674Z,13.02
2022-08-20T22:01:52.666Z,12.63
2022-08-20T22:04:20.147Z,17.25
2022-08-20T22:06:47.909Z,19.80
2022-08-20T22:09:15.305Z,15.00
2022-08-20T22:11:42.385Z,13.32
2022-08-20T22:14:10.893Z,11.75
2022-08-20T22:16:38.069Z,14.68
2022-08-20T22:19:13.991Z,17.95
2022-08-20T22:21:43.197Z,17.85
2022-08-20T22:24:11.861Z,13.75
2022-08-20T22:26:40.701Z,14.77
2022-08-20T22:29:09.234Z,15.10
2022-08-20T22:31:38.609Z,16.60
2022-08-20T22:34:06.103Z,16.13
2022-08-20T22:36:33.418Z,16.95
2022-08-20T22:39:00.801Z,19.83
2022-08-20T22:41:28.082Z,12.88
2022-08-20T22:43:56.557Z,15.02
2022-08-20T22:46:28.267Z,18.90
2022-08-20T22:48:56.507Z,19.08
2022-08-20T22:51:32.069Z,14.77
2022-08-20T22:54:04.458Z,13.95
2022-08-20T22:56:31.573Z,26.80
2022-08-20T22:58:59.138Z,19.45
2022-08-20T23:01:27.397Z,14.68
2022-08-20T23:04:05.103Z,19.73
2022-08-20T23:06:32.559Z,18.65
2022-08-20T23:08:59.875Z,22.23
2022-08-20T23:11:27.006Z,13.57
2022-08-20T23:13:54.227Z,14.02
2022-08-20T23:16:21.199Z,24.58
2022-08-20T23:18:48.165Z,22.88
2022-08-20T23:21:15.280Z,19.33
2022-08-20T23:23:42.257Z,17.80
2022-08-20T23:26:19.271Z,17.73
2022-08-20T23:28:46.396Z,17.73
2022-08-20T23:31:13.805Z,18.35
2022-08-20T23:33:44.694Z,17.27
2022-08-20T23:36:15.153Z,18.00
2022-08-20T23:38:42.276Z,16.45
2022-08-20T23:41:09.291Z,18.63
2022-08-20T23:43:37.578Z,20.88
2022-08-20T23:46:06.513Z,19.02
2022-08-20T23:48:35.165Z,17.40
2022-08-20T23:51:02.319Z,18.52
2022-08-20T23:53:29.072Z,20.60
2022-08-20T23:55:56.244Z,19.25
2022-08-20T23:58:23.532Z,17.77
